UAE46 LSZH-EGKK
Flight info
| Callsign | UAE46 |
|---|---|
| Flight time | 1h 23m |
| Altitude | 30000 |
| Route | VEBIT T51 LASUN T14 LUMEL T10 TORPA DCT EDOPI DCT GIVOR DCT SORAL DCT IBERA N853 DIK M624 BUB L608 DENUT L610 TEBRA |
| Aircraft | A388/J-SADE2E3FGHIJ3J4J5M1RWXY/L |
Departure
| Time | 2026-05-04 16:09 |
|---|---|
| Airport | Zürich Airport (LSZH) |
Arrival
| Time | 2026-05-04 17:32 |
|---|---|
| Airport | London Gatwick Airport (EGKK) |
| Time | Latitude | Longitude | Altitude | Speed | Heading |
|---|---|---|---|---|---|
| 2026-05-04 15:56 | 47.46202 | 8.55095 | 1407 ft | 0 kts | 155° |
| 2026-05-04 15:59 | 47.46214 | 8.55088 | 1399 ft | 2 kts | 159° |
| 2026-05-04 15:59 | 47.46230 | 8.55081 | 1386 ft | 2 kts | 168° |
| 2026-05-04 15:59 | 47.46247 | 8.55080 | 1413 ft | 2 kts | 181° |
| 2026-05-04 16:00 | 47.46263 | 8.55086 | 1401 ft | 2 kts | 200° |
| 2026-05-04 16:00 | 47.46272 | 8.55095 | 1411 ft | 2 kts | 216° |
| 2026-05-04 16:00 | 47.46282 | 8.55121 | 1406 ft | 1 kts | 253° |
| 2026-05-04 16:00 | 47.46282 | 8.55123 | 1407 ft | 1 kts | 261° |
| 2026-05-04 16:01 | 47.46282 | 8.55119 | 1411 ft | 0 kts | 268° |
| 2026-05-04 16:01 | 47.46285 | 8.55057 | 1410 ft | 9 kts | 273° |
| 2026-05-04 16:01 | 47.46268 | 8.54978 | 1410 ft | 9 kts | 221° |
| 2026-05-04 16:01 | 47.46206 | 8.54960 | 1406 ft | 10 kts | 160° |
| 2026-05-04 16:02 | 47.46144 | 8.55001 | 1406 ft | 11 kts | 155° |
| 2026-05-04 16:02 | 47.46064 | 8.55056 | 1408 ft | 13 kts | 155° |
| 2026-05-04 16:02 | 47.45978 | 8.55328 | 1407 ft | 18 kts | 96° |
| 2026-05-04 16:03 | 47.45963 | 8.55533 | 1409 ft | 22 kts | 96° |
| 2026-05-04 16:03 | 47.45949 | 8.55731 | 1409 ft | 19 kts | 96° |
| 2026-05-04 16:03 | 47.45937 | 8.55892 | 1410 ft | 15 kts | 96° |
| 2026-05-04 16:03 | 47.45924 | 8.56062 | 1412 ft | 17 kts | 96° |
| 2026-05-04 16:04 | 47.45913 | 8.56210 | 1409 ft | 8 kts | 96° |
| 2026-05-04 16:04 | 47.45952 | 8.56313 | 1415 ft | 1 kts | 7° |
| 2026-05-04 16:04 | 47.45971 | 8.56316 | 1413 ft | 2 kts | 6° |
| 2026-05-04 16:05 | 47.45995 | 8.56321 | 1413 ft | 3 kts | 8° |
| 2026-05-04 16:05 | 47.46003 | 8.56322 | 1413 ft | 0 kts | 8° |
| 2026-05-04 16:06 | 47.46063 | 8.56342 | 1414 ft | 9 kts | 26° |
| 2026-05-04 16:07 | 47.46123 | 8.56410 | 1412 ft | 11 kts | 24° |
| 2026-05-04 16:07 | 47.46166 | 8.56397 | 1402 ft | 0 kts | 317° |
| 2026-05-04 16:08 | 47.47522 | 8.54549 | 1449 ft | 163 kts | 315° |
| 2026-05-04 16:09 | 47.49168 | 8.52347 | 2526 ft | 164 kts | 315° |
| 2026-05-04 16:09 | 47.51016 | 8.50393 | 3590 ft | 170 kts | 330° |
| 2026-05-04 16:10 | 47.52852 | 8.48249 | 4798 ft | 180 kts | 298° |
| 2026-05-04 16:11 | 47.52854 | 8.42025 | 6094 ft | 230 kts | 248° |
| 2026-05-04 16:11 | 47.52189 | 8.39917 | 7043 ft | 229 kts | 233° |
| 2026-05-04 16:12 | 47.47777 | 8.37396 | 9360 ft | 255 kts | 190° |
| 2026-05-04 16:12 | 47.42026 | 8.35633 | 10751 ft | 309 kts | 192° |
| 2026-05-04 16:13 | 47.38221 | 8.32294 | 11797 ft | 335 kts | 231° |
| 2026-05-04 16:13 | 47.36000 | 8.26256 | 13483 ft | 338 kts | 240° |
| 2026-05-04 16:14 | 47.33793 | 8.20051 | 14941 ft | 344 kts | 240° |
| 2026-05-04 16:14 | 47.31537 | 8.13729 | 16289 ft | 351 kts | 240° |
| 2026-05-04 16:15 | 47.28216 | 8.04062 | 18302 ft | 357 kts | 250° |
| 2026-05-04 16:16 | 47.28137 | 7.96712 | 19347 ft | 372 kts | 283° |
| 2026-05-04 16:16 | 47.31407 | 7.86059 | 20858 ft | 386 kts | 291° |
| 2026-05-04 16:17 | 47.33658 | 7.78842 | 21771 ft | 395 kts | 291° |
| 2026-05-04 16:18 | 47.37124 | 7.67648 | 23339 ft | 404 kts | 290° |
| 2026-05-04 16:18 | 47.38291 | 7.63865 | 23789 ft | 407 kts | 290° |
| 2026-05-04 16:19 | 47.41137 | 7.52082 | 25019 ft | 406 kts | 274° |
| 2026-05-04 16:19 | 47.41230 | 7.43768 | 25884 ft | 407 kts | 264° |
| 2026-05-04 16:20 | 47.41007 | 7.31098 | 27283 ft | 416 kts | 264° |
| 2026-05-04 16:20 | 47.40854 | 7.22469 | 28255 ft | 423 kts | 264° |
| 2026-05-04 16:21 | 47.41599 | 7.09315 | 29687 ft | 441 kts | 278° |
| 2026-05-04 16:22 | 47.42943 | 7.00349 | 30020 ft | 463 kts | 277° |
| 2026-05-04 16:23 | 47.48520 | 6.72481 | 30025 ft | 488 kts | 302° |
| 2026-05-04 16:24 | 47.60131 | 6.62030 | 30021 ft | 510 kts | 349° |
| 2026-05-04 16:25 | 47.67226 | 6.61349 | 30021 ft | 511 kts | 355° |
| 2026-05-04 16:26 | 47.91880 | 6.57022 | 30014 ft | 511 kts | 350° |
| 2026-05-04 16:28 | 48.09423 | 6.52849 | 30007 ft | 511 kts | 348° |
| 2026-05-04 16:29 | 48.33995 | 6.46916 | 29995 ft | 511 kts | 348° |
| 2026-05-04 16:31 | 48.51639 | 6.42624 | 29993 ft | 516 kts | 348° |
| 2026-05-04 16:32 | 48.72982 | 6.39902 | 29992 ft | 519 kts | 3° |
| 2026-05-04 16:33 | 48.87394 | 6.41321 | 29993 ft | 519 kts | 2° |
| 2026-05-04 16:34 | 48.98215 | 6.42419 | 29993 ft | 520 kts | 2° |
| 2026-05-04 16:35 | 49.19573 | 6.40356 | 29986 ft | 511 kts | 341° |
| 2026-05-04 16:36 | 49.29846 | 6.36180 | 29978 ft | 511 kts | 341° |
| 2026-05-04 16:37 | 49.40148 | 6.31939 | 29983 ft | 511 kts | 341° |
| 2026-05-04 16:38 | 49.53886 | 6.26243 | 29986 ft | 513 kts | 342° |
| 2026-05-04 16:39 | 49.71143 | 6.19175 | 29982 ft | 513 kts | 342° |
| 2026-05-04 16:40 | 49.84723 | 6.12938 | 29984 ft | 504 kts | 329° |
| 2026-05-04 16:41 | 49.90333 | 6.06744 | 29991 ft | 491 kts | 311° |
| 2026-05-04 16:41 | 49.97745 | 5.95706 | 29973 ft | 492 kts | 311° |
| 2026-05-04 16:43 | 50.10048 | 5.77302 | 29978 ft | 488 kts | 311° |
| 2026-05-04 16:43 | 50.17383 | 5.66255 | 29972 ft | 489 kts | 311° |
| 2026-05-04 16:45 | 50.32008 | 5.44082 | 29980 ft | 489 kts | 311° |
| 2026-05-04 16:46 | 50.43376 | 5.26712 | 29971 ft | 488 kts | 311° |
| 2026-05-04 16:47 | 50.53056 | 5.11820 | 29966 ft | 489 kts | 311° |
| 2026-05-04 16:48 | 50.62795 | 4.96744 | 29960 ft | 492 kts | 311° |
| 2026-05-04 16:49 | 50.72532 | 4.81595 | 29955 ft | 491 kts | 311° |
| 2026-05-04 16:50 | 50.82248 | 4.66388 | 29959 ft | 487 kts | 312° |
| 2026-05-04 16:51 | 50.89372 | 4.54964 | 29966 ft | 485 kts | 307° |
| 2026-05-04 16:52 | 50.96617 | 4.37165 | 29965 ft | 480 kts | 298° |
| 2026-05-04 16:53 | 51.01809 | 4.23633 | 29964 ft | 480 kts | 298° |
| 2026-05-04 16:54 | 51.08706 | 4.05475 | 29955 ft | 480 kts | 297° |
| 2026-05-04 16:55 | 51.19000 | 3.78127 | 29964 ft | 481 kts | 298° |
| 2026-05-04 16:56 | 51.25209 | 3.53629 | 29960 ft | 477 kts | 279° |
| 2026-05-04 16:57 | 51.27278 | 3.38104 | 29968 ft | 477 kts | 279° |
| 2026-05-04 16:58 | 51.29220 | 3.23111 | 29929 ft | 445 kts | 278° |
| 2026-05-04 16:58 | 51.29835 | 3.18278 | 29612 ft | 443 kts | 278° |
| 2026-05-04 16:59 | 51.31040 | 3.08753 | 28935 ft | 438 kts | 278° |
| 2026-05-04 17:00 | 51.33409 | 2.89896 | 27632 ft | 427 kts | 278° |
| 2026-05-04 17:00 | 51.35130 | 2.76039 | 26685 ft | 420 kts | 278° |
| 2026-05-04 17:01 | 51.36257 | 2.66923 | 26096 ft | 416 kts | 278° |
| 2026-05-04 17:01 | 51.37367 | 2.57903 | 25489 ft | 411 kts | 278° |
| 2026-05-04 17:02 | 51.38459 | 2.48965 | 24907 ft | 405 kts | 278° |
| 2026-05-04 17:02 | 51.39527 | 2.40166 | 23955 ft | 397 kts | 278° |
| 2026-05-04 17:03 | 51.40050 | 2.35834 | 23280 ft | 397 kts | 278° |
| 2026-05-04 17:03 | 51.40570 | 2.31504 | 22624 ft | 395 kts | 278° |
| 2026-05-04 17:03 | 51.41598 | 2.22939 | 21399 ft | 389 kts | 279° |
| 2026-05-04 17:04 | 51.42631 | 2.14513 | 20210 ft | 383 kts | 279° |
| 2026-05-04 17:04 | 51.43644 | 2.06204 | 19085 ft | 378 kts | 279° |
| 2026-05-04 17:05 | 51.44639 | 1.97938 | 17887 ft | 375 kts | 280° |
| 2026-05-04 17:05 | 51.45591 | 1.89794 | 16758 ft | 368 kts | 279° |
| 2026-05-04 17:06 | 51.46519 | 1.81805 | 15650 ft | 362 kts | 280° |
| 2026-05-04 17:06 | 51.46977 | 1.77861 | 15153 ft | 357 kts | 280° |
| 2026-05-04 17:07 | 51.47877 | 1.70074 | 14157 ft | 352 kts | 281° |
| 2026-05-04 17:07 | 51.48172 | 1.67517 | 14042 ft | 352 kts | 281° |
| 2026-05-04 17:07 | 51.48549 | 1.62374 | 13992 ft | 352 kts | 269° |
| 2026-05-04 17:07 | 51.48230 | 1.58470 | 13985 ft | 354 kts | 256° |
| 2026-05-04 17:08 | 51.47428 | 1.54744 | 13992 ft | 354 kts | 249° |
| 2026-05-04 17:08 | 51.45707 | 1.47357 | 13989 ft | 354 kts | 250° |
| 2026-05-04 17:08 | 51.44855 | 1.43649 | 13990 ft | 354 kts | 250° |
| 2026-05-04 17:09 | 51.43929 | 1.39990 | 13990 ft | 354 kts | 242° |
| 2026-05-04 17:09 | 51.42531 | 1.36747 | 13962 ft | 354 kts | 229° |
| 2026-05-04 17:09 | 51.40703 | 1.34139 | 13605 ft | 352 kts | 217° |
| 2026-05-04 17:10 | 51.36767 | 1.29562 | 12533 ft | 346 kts | 217° |
| 2026-05-04 17:10 | 51.31033 | 1.22797 | 10900 ft | 338 kts | 216° |
| 2026-05-04 17:11 | 51.29152 | 1.20577 | 10397 ft | 334 kts | 216° |
| 2026-05-04 17:11 | 51.27307 | 1.18404 | 10076 ft | 331 kts | 216° |
| 2026-05-04 17:11 | 51.23598 | 1.14042 | 9991 ft | 325 kts | 216° |
| 2026-05-04 17:12 | 51.21829 | 1.11965 | 9987 ft | 307 kts | 216° |
| 2026-05-04 17:12 | 51.18571 | 1.08143 | 9987 ft | 278 kts | 216° |
| 2026-05-04 17:13 | 51.13954 | 1.02742 | 9121 ft | 272 kts | 216° |
| 2026-05-04 17:14 | 51.09392 | 0.97419 | 8038 ft | 270 kts | 216° |
| 2026-05-04 17:14 | 51.07894 | 0.95673 | 7692 ft | 268 kts | 216° |
| 2026-05-04 17:14 | 51.05260 | 0.91611 | 7068 ft | 264 kts | 240° |
| 2026-05-04 17:15 | 51.04475 | 0.88982 | 6986 ft | 263 kts | 246° |
| 2026-05-04 17:15 | 51.02923 | 0.83703 | 6987 ft | 265 kts | 245° |
| 2026-05-04 17:16 | 51.02004 | 0.78142 | 6995 ft | 264 kts | 271° |
| 2026-05-04 17:16 | 51.02117 | 0.69385 | 6988 ft | 264 kts | 271° |
| 2026-05-04 17:17 | 51.02152 | 0.66472 | 6989 ft | 264 kts | 271° |
| 2026-05-04 17:17 | 51.02254 | 0.57728 | 6990 ft | 264 kts | 271° |
| 2026-05-04 17:18 | 51.02287 | 0.54814 | 6994 ft | 264 kts | 271° |
| 2026-05-04 17:18 | 51.02355 | 0.49033 | 6992 ft | 265 kts | 271° |
| 2026-05-04 17:19 | 51.02421 | 0.43189 | 6992 ft | 265 kts | 271° |
| 2026-05-04 17:19 | 51.02481 | 0.37711 | 6993 ft | 265 kts | 271° |
| 2026-05-04 17:20 | 51.02544 | 0.31869 | 6992 ft | 265 kts | 271° |
| 2026-05-04 17:20 | 51.02609 | 0.26007 | 6944 ft | 266 kts | 271° |
| 2026-05-04 17:20 | 51.02640 | 0.23056 | 6709 ft | 266 kts | 271° |
| 2026-05-04 17:21 | 51.02698 | 0.17230 | 6141 ft | 262 kts | 271° |
| 2026-05-04 17:21 | 51.02729 | 0.11466 | 5452 ft | 260 kts | 271° |
| 2026-05-04 17:22 | 51.02730 | 0.08601 | 5109 ft | 259 kts | 271° |
| 2026-05-04 17:22 | 51.02725 | 0.05746 | 4765 ft | 258 kts | 272° |
| 2026-05-04 17:23 | 51.02800 | -0.02753 | 3746 ft | 256 kts | 272° |
| 2026-05-04 17:23 | 51.02822 | -0.05562 | 3434 ft | 254 kts | 272° |
| 2026-05-04 17:23 | 51.02860 | -0.11147 | 3000 ft | 254 kts | 272° |
| 2026-05-04 17:24 | 51.02893 | -0.13943 | 3003 ft | 253 kts | 272° |
| 2026-05-04 17:24 | 51.02942 | -0.21937 | 3001 ft | 233 kts | 272° |
| 2026-05-04 17:25 | 51.02955 | -0.24513 | 3008 ft | 233 kts | 272° |
| 2026-05-04 17:25 | 51.02977 | -0.29670 | 3000 ft | 234 kts | 272° |
| 2026-05-04 17:26 | 51.02995 | -0.34839 | 3001 ft | 234 kts | 272° |
| 2026-05-04 17:26 | 51.03362 | -0.42502 | 3005 ft | 230 kts | 300° |
| 2026-05-04 17:27 | 51.05931 | -0.44981 | 2992 ft | 223 kts | 355° |
| 2026-05-04 17:27 | 51.09027 | -0.45394 | 2632 ft | 222 kts | 13° |
| 2026-05-04 17:28 | 51.11260 | -0.42483 | 2437 ft | 204 kts | 51° |
| 2026-05-04 17:29 | 51.12420 | -0.36881 | 2269 ft | 177 kts | 85° |
| 2026-05-04 17:29 | 51.13070 | -0.31556 | 1650 ft | 159 kts | 76° |
| 2026-05-04 17:30 | 51.13730 | -0.26836 | 1046 ft | 141 kts | 76° |
| 2026-05-04 17:31 | 51.14149 | -0.23824 | 664 ft | 140 kts | 75° |
| 2026-05-04 17:31 | 51.14696 | -0.19897 | 216 ft | 124 kts | 76° |
| 2026-05-04 17:32 | 51.14932 | -0.18192 | 218 ft | 42 kts | 77° |
| 2026-05-04 17:33 | 51.15156 | -0.17769 | 216 ft | 6 kts | 351° |
| 2026-05-04 17:33 | 51.15160 | -0.17770 | 218 ft | 0 kts | 351° |
| 2026-05-04 17:34 | 51.15179 | -0.17775 | 220 ft | 6 kts | 351° |
| 2026-05-04 17:34 | 51.15228 | -0.17803 | 216 ft | 8 kts | 313° |
| 2026-05-04 17:35 | 51.15242 | -0.18095 | 219 ft | 9 kts | 333° |
| 2026-05-04 17:35 | 51.15331 | -0.18130 | 218 ft | 5 kts | 348° |
| 2026-05-04 17:35 | 51.15340 | -0.18134 | 214 ft | 0 kts | 348° |
| 2026-05-04 17:36 | 51.15345 | -0.18135 | 216 ft | 3 kts | 348° |
| 2026-05-04 17:36 | 51.15382 | -0.18147 | 213 ft | 5 kts | 348° |
| 2026-05-04 17:36 | 51.15428 | -0.18163 | 219 ft | 8 kts | 346° |
| 2026-05-04 17:36 | 51.15496 | -0.18195 | 215 ft | 11 kts | 346° |
| 2026-05-04 17:37 | 51.15569 | -0.18221 | 210 ft | 12 kts | 347° |
| 2026-05-04 17:37 | 51.15639 | -0.18233 | 218 ft | 9 kts | 19° |
| 2026-05-04 17:37 | 51.15691 | -0.18184 | 216 ft | 10 kts | 21° |
| 2026-05-04 17:37 | 51.15756 | -0.18126 | 221 ft | 12 kts | 43° |
| 2026-05-04 17:38 | 51.15814 | -0.18078 | 219 ft | 7 kts | 1° |
| 2026-05-04 17:38 | 51.15868 | -0.18090 | 215 ft | 8 kts | 347° |
| 2026-05-04 17:38 | 51.15906 | -0.18074 | 215 ft | 5 kts | 58° |
| 2026-05-04 17:38 | 51.15916 | -0.18024 | 216 ft | 4 kts | 78° |
| 2026-05-04 17:39 | 51.15923 | -0.17974 | 215 ft | 0 kts | 77° |